Time;durP1;ratioP1;P1;durP2;ratioP2;P2;SDS_P1;SDS_P2;PMS_P1;PMS_P2;Temp;Humidity;BMP_temperature;BMP_pressure;BME280_temperature;BME280_humidity;BME280_pressure;Samples;Min_cycle;Max_cycle;Signal;HPM_P1;HPM_P2
2023/07/02 00:00:26;;;;;;;;;;;23.70;99.90;;;;;;4591745;19;19938;-27
2023/07/02 00:02:19;;;;;;;;;;;23.70;99.90;;;;;;4591489;19;19933;-25
2023/07/02 00:03:50;;;;;;;;;;;23.80;99.90;;;;;;4591945;19;20344;-24
2023/07/02 00:05:21;;;;;;;;;;;23.80;99.90;;;;;;4590869;19;19919;-29
2023/07/02 00:06:52;;;;;;;;;;;23.80;99.90;;;;;;4591681;19;19941;-24
2023/07/02 00:08:23;;;;;;;;;;;23.90;99.90;;;;;;4590460;19;20254;-25
2023/07/02 00:09:54;;;;;;;;;;;23.90;99.90;;;;;;4590508;19;19988;-24
2023/07/02 00:11:28;;;;;;;;;;;23.90;99.90;;;;;;4591545;19;19931;-26
2023/07/02 00:12:59;;;;;;;;;;;23.90;99.90;;;;;;4590359;19;19937;-24
2023/07/02 00:14:30;;;;;;;;;;;24.00;99.90;;;;;;4590457;19;19974;-24
2023/07/02 00:16:01;;;;;;;;;;;24.00;99.90;;;;;;4591387;19;19914;-25
2023/07/02 00:17:32;;;;;;;;;;;24.00;99.90;;;;;;4591987;19;19919;-28
2023/07/02 00:19:03;;;;;;;;;;;24.10;99.90;;;;;;4591464;19;19911;-26
2023/07/02 00:20:37;;;;;;;;;;;24.00;99.90;;;;;;4590492;19;20335;-23
2023/07/02 00:22:09;;;;;;;;;;;24.00;99.90;;;;;;4590654;19;19915;-24
2023/07/02 00:23:40;;;;;;;;;;;24.00;99.90;;;;;;4591692;19;19915;-24
2023/07/02 00:25:12;;;;;;;;;;;24.10;99.90;;;;;;4590734;19;19935;-27
2023/07/02 00:26:43;;;;;;;;;;;24.00;99.90;;;;;;4590024;19;19942;-25
2023/07/02 00:28:14;;;;;;;;;;;24.00;99.90;;;;;;4587765;19;19981;-24
2023/07/02 00:29:45;;;;;;;;;;;24.10;99.90;;;;;;4589193;19;19914;-25
2023/07/02 00:31:16;;;;;;;;;;;24.10;99.90;;;;;;4587786;19;19922;-25
2023/07/02 00:32:47;;;;;;;;;;;24.10;99.90;;;;;;4588874;19;20362;-27
2023/07/02 00:34:19;;;;;;;;;;;24.10;99.90;;;;;;4588681;19;19914;-24
2023/07/02 00:35:51;;;;;;;;;;;24.00;99.90;;;;;;4589447;19;19978;-27
2023/07/02 00:37:22;;;;;;;;;;;24.10;99.90;;;;;;4588710;19;20329;-24
2023/07/02 00:38:53;;;;;;;;;;;24.10;99.90;;;;;;4588580;19;19917;-24
2023/07/02 00:40:26;;;;;;;;;;;24.00;99.90;;;;;;4588877;19;20282;-25
2023/07/02 00:42:01;;;;;;;;;;;24.10;99.90;;;;;;4588772;19;19918;-27
2023/07/02 00:43:32;;;;;;;;;;;24.00;99.90;;;;;;4588826;19;19923;-28
2023/07/02 00:45:03;;;;;;;;;;;24.00;99.90;;;;;;4588758;19;19922;-27
2023/07/02 00:46:34;;;;;;;;;;;24.10;99.90;;;;;;4588903;19;19914;-24
2023/07/02 00:48:06;;;;;;;;;;;24.00;99.90;;;;;;4588684;19;20279;-28
2023/07/02 00:49:37;;;;;;;;;;;24.00;99.90;;;;;;4589013;19;20270;-25
2023/07/02 00:51:10;;;;;;;;;;;24.00;99.90;;;;;;4589201;19;19926;-24
2023/07/02 00:52:43;;;;;;;;;;;24.00;99.90;;;;;;4589181;19;19911;-29
2023/07/02 00:54:15;;;;;;;;;;;24.00;99.90;;;;;;4588278;19;19920;-24
2023/07/02 00:55:48;;;;;;;;;;;24.00;99.90;;;;;;4588762;19;19943;-24
2023/07/02 00:57:19;;;;;;;;;;;23.90;99.90;;;;;;4588065;19;20302;-24
2023/07/02 00:58:51;;;;;;;;;;;23.90;99.90;;;;;;4589060;19;19939;-28
2023/07/02 01:00:23;;;;;;;;;;;24.00;99.90;;;;;;4589088;19;19978;-26
2023/07/02 01:01:56;;;;;;;;;;;23.90;99.90;;;;;;4593042;19;19938;-27
2023/07/02 01:03:28;;;;;;;;;;;23.90;99.90;;;;;;4593490;19;19941;-29
2023/07/02 01:05:02;;;;;;;;;;;23.90;99.90;;;;;;4593317;19;19952;-24
2023/07/02 01:06:34;;;;;;;;;;;23.90;99.90;;;;;;4593979;19;19943;-24
2023/07/02 01:08:05;;;;;;;;;;;23.90;99.90;;;;;;4594341;19;19919;-29
2023/07/02 01:09:36;;;;;;;;;;;23.90;99.90;;;;;;4595228;19;19923;-24
2023/07/02 01:11:07;;;;;;;;;;;23.90;99.90;;;;;;4594943;19;19927;-26
2023/07/02 01:12:39;;;;;;;;;;;23.90;99.90;;;;;;4594042;19;20244;-24
2023/07/02 01:14:12;;;;;;;;;;;23.90;99.90;;;;;;4594143;19;19911;-24
2023/07/02 01:15:43;;;;;;;;;;;23.80;99.90;;;;;;4594891;19;19914;-28
2023/07/02 01:17:18;;;;;;;;;;;23.80;99.90;;;;;;4593758;19;19919;-24
2023/07/02 01:18:50;;;;;;;;;;;23.80;99.90;;;;;;4593703;19;20415;-24
2023/07/02 01:20:22;;;;;;;;;;;23.90;99.90;;;;;;4592355;19;20370;-24
2023/07/02 01:21:54;;;;;;;;;;;23.80;99.90;;;;;;4594150;19;19919;-29
2023/07/02 01:23:25;;;;;;;;;;;23.80;99.90;;;;;;4593620;19;20340;-25
2023/07/02 01:24:57;;;;;;;;;;;23.80;99.90;;;;;;4594373;19;19918;-28
2023/07/02 01:26:33;;;;;;;;;;;23.90;99.90;;;;;;4594366;19;19911;-26
2023/07/02 01:28:06;;;;;;;;;;;23.80;99.90;;;;;;4592243;19;19923;-24
2023/07/02 01:29:37;;;;;;;;;;;23.80;99.90;;;;;;4593540;19;20256;-24
2023/07/02 01:31:08;;;;;;;;;;;23.80;99.90;;;;;;4594615;19;19978;-24
2023/07/02 01:32:39;;;;;;;;;;;23.80;99.90;;;;;;4594966;19;19915;-25
2023/07/02 01:34:10;;;;;;;;;;;23.80;99.90;;;;;;4594650;19;20325;-24
2023/07/02 01:35:42;;;;;;;;;;;23.80;99.90;;;;;;4592914;19;19919;-25
2023/07/02 01:37:13;;;;;;;;;;;23.80;99.90;;;;;;4594364;19;19944;-24
2023/07/02 01:38:43;;;;;;;;;;;23.80;99.90;;;;;;4594435;19;19925;-25
2023/07/02 01:40:15;;;;;;;;;;;23.80;99.90;;;;;;4592770;19;19914;-28
2023/07/02 01:41:49;;;;;;;;;;;23.80;99.90;;;;;;4593593;19;19940;-30
2023/07/02 01:43:20;;;;;;;;;;;23.80;99.90;;;;;;4594510;19;20331;-28
2023/07/02 01:44:52;;;;;;;;;;;23.80;99.90;;;;;;4594868;19;19919;-27
2023/07/02 01:46:23;;;;;;;;;;;23.80;99.90;;;;;;4594242;19;20251;-24
2023/07/02 01:47:54;;;;;;;;;;;23.70;99.90;;;;;;4594741;19;19910;-25
2023/07/02 01:49:25;;;;;;;;;;;23.80;99.90;;;;;;4594937;19;19926;-24
2023/07/02 01:50:56;;;;;;;;;;;23.80;99.90;;;;;;4593547;19;19986;-24
2023/07/02 01:52:27;;;;;;;;;;;23.70;99.90;;;;;;4593380;19;20269;-24
2023/07/02 01:53:58;;;;;;;;;;;23.80;99.90;;;;;;4594408;19;19922;-24
2023/07/02 01:55:30;;;;;;;;;;;23.70;99.90;;;;;;4594779;19;19936;-24
2023/07/02 01:57:01;;;;;;;;;;;23.70;99.90;;;;;;4594569;19;20274;-27
2023/07/02 01:58:32;;;;;;;;;;;23.80;99.90;;;;;;4594457;19;19934;-27
2023/07/02 02:00:03;;;;;;;;;;;23.70;99.90;;;;;;4593527;19;20317;-24
2023/07/02 02:01:34;;;;;;;;;;;23.70;99.90;;;;;;4594590;19;19932;-25
2023/07/02 02:03:07;;;;;;;;;;;23.70;99.90;;;;;;4594011;19;19919;-29
2023/07/02 02:04:41;;;;;;;;;;;23.70;99.90;;;;;;4593082;19;20325;-24
2023/07/02 02:06:12;;;;;;;;;;;23.70;99.90;;;;;;4594044;19;19926;-24
2023/07/02 02:07:43;;;;;;;;;;;23.70;99.90;;;;;;4592962;19;19919;-28
2023/07/02 02:09:14;;;;;;;;;;;23.70;99.90;;;;;;4593369;19;19929;-24
2023/07/02 02:10:47;;;;;;;;;;;23.70;99.90;;;;;;4593910;19;20012;-25
2023/07/02 02:12:18;;;;;;;;;;;23.70;99.90;;;;;;4592881;19;19922;-28
2023/07/02 02:13:49;;;;;;;;;;;23.70;99.90;;;;;;4594547;19;19955;-23
2023/07/02 02:15:20;;;;;;;;;;;23.70;99.90;;;;;;4593981;19;19929;-24
2023/07/02 02:16:52;;;;;;;;;;;23.70;99.90;;;;;;4594364;19;20329;-24
2023/07/02 02:18:23;;;;;;;;;;;23.70;99.90;;;;;;4594354;19;19927;-24
2023/07/02 02:19:54;;;;;;;;;;;23.70;99.90;;;;;;4592945;19;19911;-29
2023/07/02 02:21:25;;;;;;;;;;;23.70;99.90;;;;;;4592707;19;19915;-25
2023/07/02 02:22:58;;;;;;;;;;;23.70;99.90;;;;;;4593334;19;19923;-26
2023/07/02 02:24:28;;;;;;;;;;;23.70;99.90;;;;;;4593578;19;20339;-26
2023/07/02 02:26:00;;;;;;;;;;;23.70;99.90;;;;;;4592723;19;19915;-24
2023/07/02 02:27:31;;;;;;;;;;;23.70;99.90;;;;;;4591982;19;19944;-24
2023/07/02 02:29:02;;;;;;;;;;;23.70;99.90;;;;;;4592760;19;19914;-29
2023/07/02 02:30:33;;;;;;;;;;;23.70;99.90;;;;;;4593611;19;19933;-24
2023/07/02 02:32:04;;;;;;;;;;;23.70;99.90;;;;;;4593498;19;20321;-24
2023/07/02 02:33:35;;;;;;;;;;;23.70;99.90;;;;;;4593709;19;19914;-25
2023/07/02 02:35:07;;;;;;;;;;;23.70;99.90;;;;;;4593466;19;19967;-27
2023/07/02 02:36:38;;;;;;;;;;;23.70;99.90;;;;;;4593642;19;19942;-28
2023/07/02 02:38:09;;;;;;;;;;;23.70;99.90;;;;;;4592271;19;19974;-24
2023/07/02 02:39:40;;;;;;;;;;;23.70;99.90;;;;;;4592488;19;19933;-27
2023/07/02 02:41:11;;;;;;;;;;;23.70;99.90;;;;;;4594072;19;20343;-24
2023/07/02 02:42:42;;;;;;;;;;;23.70;99.90;;;;;;4593127;19;19914;-24
2023/07/02 02:44:14;;;;;;;;;;;23.70;99.90;;;;;;4593760;19;19982;-26
2023/07/02 02:45:44;;;;;;;;;;;23.70;99.90;;;;;;4593526;19;19930;-27
2023/07/02 02:47:15;;;;;;;;;;;23.70;99.90;;;;;;4593776;19;19938;-24
2023/07/02 02:48:47;;;;;;;;;;;23.70;99.90;;;;;;4593235;19;19919;-24
2023/07/02 02:50:18;;;;;;;;;;;23.70;99.90;;;;;;4592181;19;19928;-25
2023/07/02 02:51:48;;;;;;;;;;;23.70;99.90;;;;;;4592565;19;20226;-24
2023/07/02 02:53:20;;;;;;;;;;;23.70;99.90;;;;;;4593482;19;20241;-30
2023/07/02 02:54:52;;;;;;;;;;;23.70;99.90;;;;;;4593155;19;19970;-25
2023/07/02 02:56:24;;;;;;;;;;;23.70;99.90;;;;;;4593093;19;19915;-24
2023/07/02 02:57:55;;;;;;;;;;;23.70;99.90;;;;;;4593400;19;20023;-24
2023/07/02 02:59:26;;;;;;;;;;;23.70;99.90;;;;;;4592692;19;20333;-24
2023/07/02 03:00:58;;;;;;;;;;;23.70;99.90;;;;;;4593368;19;19911;-24
2023/07/02 03:02:30;;;;;;;;;;;23.70;99.90;;;;;;4592394;19;19919;-24
2023/07/02 03:04:01;;;;;;;;;;;23.70;99.90;;;;;;4593272;19;19914;-29
2023/07/02 03:05:34;;;;;;;;;;;23.60;99.90;;;;;;4591727;19;19918;-24
2023/07/02 03:07:07;;;;;;;;;;;23.60;99.90;;;;;;4592570;19;20325;-24
2023/07/02 03:08:40;;;;;;;;;;;23.70;99.90;;;;;;4592490;19;19915;-25
2023/07/02 03:10:11;;;;;;;;;;;23.70;99.90;;;;;;4593699;19;20305;-28
2023/07/02 03:11:42;;;;;;;;;;;23.70;99.90;;;;;;4591431;19;19934;-24
2023/07/02 03:13:13;;;;;;;;;;;23.60;99.90;;;;;;4591853;19;20024;-25
2023/07/02 03:14:44;;;;;;;;;;;23.60;99.90;;;;;;4592633;19;19944;-24
2023/07/02 03:16:15;;;;;;;;;;;23.60;99.90;;;;;;4593527;19;20248;-24
2023/07/02 03:17:47;;;;;;;;;;;23.60;99.90;;;;;;4591540;19;19917;-24
2023/07/02 03:19:18;;;;;;;;;;;23.60;99.90;;;;;;4591880;19;19966;-24
2023/07/02 03:20:49;;;;;;;;;;;23.60;99.90;;;;;;4592790;19;19914;-28
2023/07/02 03:22:21;;;;;;;;;;;23.60;99.90;;;;;;4592118;19;19925;-24
2023/07/02 03:23:52;;;;;;;;;;;23.60;99.90;;;;;;4589868;19;20352;-24
2023/07/02 03:25:23;;;;;;;;;;;23.60;99.90;;;;;;4590247;19;19918;-26
2023/07/02 03:26:54;;;;;;;;;;;23.60;99.90;;;;;;4591913;19;19914;-28
2023/07/02 03:28:25;;;;;;;;;;;23.60;99.90;;;;;;4591411;19;19979;-26
2023/07/02 03:29:58;;;;;;;;;;;23.60;99.90;;;;;;4592594;19;19986;-28
2023/07/02 03:31:30;;;;;;;;;;;23.60;99.90;;;;;;4592423;19;19925;-26
2023/07/02 03:33:01;;;;;;;;;;;23.70;99.90;;;;;;4592928;19;19907;-24
2023/07/02 03:34:33;;;;;;;;;;;23.70;99.90;;;;;;4591164;19;19919;-27
2023/07/02 03:36:04;;;;;;;;;;;23.60;99.90;;;;;;4591653;19;19934;-24
2023/07/02 03:37:34;;;;;;;;;;;23.60;99.90;;;;;;4592060;19;20312;-29
2023/07/02 03:39:09;;;;;;;;;;;23.60;99.90;;;;;;4590921;19;19925;-24
2023/07/02 03:40:40;;;;;;;;;;;23.60;99.90;;;;;;4591108;19;19911;-24
2023/07/02 03:42:11;;;;;;;;;;;23.60;99.90;;;;;;4591785;19;19914;-24
2023/07/02 03:43:43;;;;;;;;;;;23.60;99.90;;;;;;4592402;19;19918;-24
2023/07/02 03:45:15;;;;;;;;;;;23.60;99.90;;;;;;4590732;19;19922;-25
2023/07/02 03:46:46;;;;;;;;;;;23.60;99.90;;;;;;4591776;19;19929;-24
2023/07/02 03:48:17;;;;;;;;;;;23.60;99.90;;;;;;4592636;19;19933;-28
2023/07/02 03:49:48;;;;;;;;;;;23.60;99.90;;;;;;4591302;19;19910;-24
2023/07/02 03:51:19;;;;;;;;;;;23.60;99.90;;;;;;4590340;19;20330;-24
2023/07/02 03:52:50;;;;;;;;;;;23.60;99.90;;;;;;4590887;19;19922;-28
2023/07/02 03:54:21;;;;;;;;;;;23.60;99.90;;;;;;4591747;19;19925;-25
2023/07/02 03:55:52;;;;;;;;;;;23.60;99.90;;;;;;4591174;19;19911;-24
2023/07/02 03:57:24;;;;;;;;;;;23.60;99.90;;;;;;4590616;19;19918;-25
2023/07/02 03:58:55;;;;;;;;;;;23.60;99.90;;;;;;4591397;19;19926;-24
2023/07/02 04:00:25;;;;;;;;;;;23.60;99.90;;;;;;4590304;19;19919;-24
2023/07/02 04:01:57;;;;;;;;;;;23.60;99.90;;;;;;4590998;19;19922;-27
2023/07/02 04:03:28;;;;;;;;;;;23.60;99.90;;;;;;4591499;19;20241;-24
2023/07/02 04:04:59;;;;;;;;;;;23.60;99.90;;;;;;4590393;19;19918;-26
2023/07/02 04:06:30;;;;;;;;;;;23.60;99.90;;;;;;4591330;19;19937;-24
2023/07/02 04:08:03;;;;;;;;;;;23.60;99.90;;;;;;4591406;19;20253;-26
2023/07/02 04:09:34;;;;;;;;;;;23.60;99.90;;;;;;4591736;19;19922;-26
2023/07/02 04:11:05;;;;;;;;;;;23.60;99.90;;;;;;4592042;19;19940;-26
2023/07/02 04:12:36;;;;;;;;;;;23.70;99.90;;;;;;4591898;19;20240;-28
2023/07/02 04:14:07;;;;;;;;;;;23.70;99.90;;;;;;4591275;19;20253;-27
2023/07/02 04:15:38;;;;;;;;;;;23.60;99.90;;;;;;4591785;19;19952;-29
2023/07/02 04:17:09;;;;;;;;;;;23.60;99.90;;;;;;4592193;19;19915;-24
2023/07/02 04:18:40;;;;;;;;;;;23.70;99.90;;;;;;4591674;19;19915;-24
2023/07/02 04:20:11;;;;;;;;;;;23.70;99.90;;;;;;4590549;19;19926;-24
2023/07/02 04:21:43;;;;;;;;;;;23.70;99.90;;;;;;4591769;19;20379;-24
2023/07/02 04:23:14;;;;;;;;;;;23.70;99.90;;;;;;4591768;19;19907;-24
2023/07/02 04:24:48;;;;;;;;;;;23.70;99.90;;;;;;4591089;19;19945;-27
2023/07/02 04:26:19;;;;;;;;;;;23.60;99.90;;;;;;4591439;19;20344;-26
2023/07/02 04:27:50;;;;;;;;;;;23.60;99.90;;;;;;4589571;19;19915;-24
2023/07/02 04:29:21;;;;;;;;;;;23.70;99.90;;;;;;4590867;19;19918;-24
2023/07/02 04:30:52;;;;;;;;;;;23.60;99.90;;;;;;4591272;19;20370;-25
2023/07/02 04:32:24;;;;;;;;;;;23.60;99.90;;;;;;4591327;19;19911;-24
2023/07/02 04:33:55;;;;;;;;;;;23.70;99.90;;;;;;4591472;19;19919;-29
2023/07/02 04:35:26;;;;;;;;;;;23.60;99.90;;;;;;4590826;19;19935;-25
2023/07/02 04:36:57;;;;;;;;;;;23.70;99.90;;;;;;4591142;19;19918;-26
2023/07/02 04:38:29;;;;;;;;;;;23.70;99.90;;;;;;4591577;19;20359;-25
2023/07/02 04:40:02;;;;;;;;;;;23.70;99.90;;;;;;4589705;19;20006;-24
2023/07/02 04:41:33;;;;;;;;;;;23.70;99.90;;;;;;4589839;19;19918;-24
2023/07/02 04:43:05;;;;;;;;;;;23.70;99.90;;;;;;4590487;19;19933;-30
2023/07/02 04:44:37;;;;;;;;;;;23.70;99.90;;;;;;4590783;19;19952;-29
2023/07/02 04:46:08;;;;;;;;;;;23.70;99.90;;;;;;4590280;19;19914;-24
2023/07/02 04:47:39;;;;;;;;;;;23.70;99.90;;;;;;4590888;19;20325;-24
2023/07/02 04:49:10;;;;;;;;;;;23.70;99.90;;;;;;4589661;19;19919;-24
2023/07/02 04:50:41;;;;;;;;;;;23.70;99.90;;;;;;4590981;19;19922;-24
2023/07/02 04:52:12;;;;;;;;;;;23.70;99.90;;;;;;4591743;19;19918;-24
2023/07/02 04:53:45;;;;;;;;;;;23.70;99.90;;;;;;4590501;19;20329;-24
2023/07/02 04:55:16;;;;;;;;;;;23.60;99.90;;;;;;4590886;19;19982;-24
2023/07/02 04:56:47;;;;;;;;;;;23.60;99.90;;;;;;4590992;19;19930;-24
2023/07/02 04:58:18;;;;;;;;;;;23.60;99.90;;;;;;4590586;19;19970;-27
2023/07/02 04:59:50;;;;;;;;;;;23.60;99.90;;;;;;4590197;19;19922;-24
2023/07/02 05:01:21;;;;;;;;;;;23.60;99.90;;;;;;4590745;19;19926;-27
2023/07/02 05:02:52;;;;;;;;;;;23.60;99.90;;;;;;4590816;19;19915;-24
2023/07/02 05:04:23;;;;;;;;;;;23.60;99.90;;;;;;4590025;19;19918;-24
2023/07/02 05:05:55;;;;;;;;;;;23.70;99.90;;;;;;4589805;19;20350;-24
2023/07/02 05:07:25;;;;;;;;;;;23.60;99.90;;;;;;4589838;19;19922;-26
2023/07/02 05:08:56;;;;;;;;;;;23.70;99.90;;;;;;4590841;19;19922;-24
2023/07/02 05:10:28;;;;;;;;;;;23.70;99.90;;;;;;4590513;19;20233;-28
2023/07/02 05:11:58;;;;;;;;;;;23.70;99.90;;;;;;4590686;19;19932;-24
2023/07/02 05:13:29;;;;;;;;;;;23.70;99.90;;;;;;4590665;19;19922;-26
2023/07/02 05:15:01;;;;;;;;;;;23.60;99.90;;;;;;4590626;19;19978;-23
2023/07/02 05:16:32;;;;;;;;;;;23.60;99.90;;;;;;4590515;19;20015;-28
2023/07/02 05:18:03;;;;;;;;;;;23.60;99.90;;;;;;4591399;19;19923;-22
2023/07/02 05:19:35;;;;;;;;;;;23.60;99.90;;;;;;4590811;19;19923;-28
2023/07/02 05:21:05;;;;;;;;;;;23.60;99.90;;;;;;4590548;19;19932;-25
2023/07/02 05:22:36;;;;;;;;;;;23.60;99.90;;;;;;4589268;19;19930;-25
2023/07/02 05:24:08;;;;;;;;;;;23.70;99.90;;;;;;4590278;19;19978;-24
2023/07/02 05:25:41;;;;;;;;;;;23.70;99.90;;;;;;4589481;19;19968;-29
2023/07/02 05:27:13;;;;;;;;;;;23.70;99.90;;;;;;4591678;19;19917;-24
2023/07/02 05:28:45;;;;;;;;;;;23.70;99.90;;;;;;4589411;19;19923;-24
2023/07/02 05:30:16;;;;;;;;;;;23.70;99.90;;;;;;4590111;19;19927;-26
2023/07/02 05:31:48;;;;;;;;;;;23.70;99.90;;;;;;4589787;19;20277;-26
2023/07/02 05:33:21;;;;;;;;;;;23.70;99.90;;;;;;4589561;19;20278;-26
2023/07/02 05:34:54;;;;;;;;;;;23.70;99.90;;;;;;4589184;19;19946;-24
2023/07/02 05:36:25;;;;;;;;;;;23.70;99.90;;;;;;4590247;19;19950;-24
2023/07/02 05:37:58;;;;;;;;;;;23.80;99.90;;;;;;4588953;19;19919;-24
2023/07/02 05:39:33;;;;;;;;;;;23.70;99.90;;;;;;4589273;19;20264;-24
2023/07/02 05:41:04;;;;;;;;;;;23.80;99.90;;;;;;4588928;19;19914;-28
2023/07/02 05:42:36;;;;;;;;;;;23.70;99.90;;;;;;4591084;19;19960;-22
2023/07/02 05:44:07;;;;;;;;;;;23.80;99.90;;;;;;4591379;19;20352;-23
2023/07/02 05:45:40;;;;;;;;;;;23.70;99.90;;;;;;4590047;19;19918;-26
2023/07/02 05:47:11;;;;;;;;;;;23.80;99.90;;;;;;4590356;19;19970;-23
2023/07/02 05:48:42;;;;;;;;;;;23.90;99.90;;;;;;4594206;19;19922;-25
2023/07/02 05:50:14;;;;;;;;;;;23.90;99.90;;;;;;4595628;19;19917;-24
2023/07/02 05:51:47;;;;;;;;;;;23.90;99.90;;;;;;4595474;19;19914;-24
2023/07/02 05:53:18;;;;;;;;;;;23.90;99.90;;;;;;4595793;19;20420;-24
2023/07/02 05:54:49;;;;;;;;;;;24.00;99.90;;;;;;4595373;19;20321;-26
2023/07/02 05:56:21;;;;;;;;;;;24.00;99.90;;;;;;4595857;19;20254;-26
2023/07/02 05:57:52;;;;;;;;;;;24.00;99.90;;;;;;4596630;19;19915;-26
2023/07/02 05:59:25;;;;;;;;;;;24.00;99.90;;;;;;4594034;19;19911;-24
2023/07/02 06:00:57;;;;;;;;;;;24.00;99.90;;;;;;4594532;19;20401;-23
2023/07/02 06:02:28;;;;;;;;;;;24.00;99.90;;;;;;4592483;19;20258;-24
2023/07/02 06:04:00;;;;;;;;;;;24.00;99.90;;;;;;4593016;19;19974;-27
2023/07/02 06:05:31;;;;;;;;;;;24.00;99.90;;;;;;4592210;19;20258;-24
2023/07/02 06:07:02;;;;;;;;;;;24.10;99.90;;;;;;4591706;19;20011;-24
2023/07/02 06:08:33;;;;;;;;;;;24.10;99.90;;;;;;4593863;19;19938;-24
2023/07/02 06:10:04;;;;;;;;;;;24.10;99.90;;;;;;4593636;19;20273;-24
2023/07/02 06:11:35;;;;;;;;;;;24.10;99.90;;;;;;4594227;19;19921;-25
2023/07/02 06:13:06;;;;;;;;;;;24.20;99.90;;;;;;4592236;19;19998;-22
2023/07/02 06:14:37;;;;;;;;;;;24.10;99.90;;;;;;4592868;19;20002;-23
2023/07/02 06:16:09;;;;;;;;;;;24.20;99.90;;;;;;4591893;19;20434;-27
2023/07/02 06:17:40;;;;;;;;;;;24.20;99.90;;;;;;4591399;19;19926;-24
2023/07/02 06:19:11;;;;;;;;;;;24.10;99.90;;;;;;4592151;19;19930;-26
2023/07/02 06:20:42;;;;;;;;;;;24.10;99.90;;;;;;4593054;19;19978;-23
2023/07/02 06:22:13;;;;;;;;;;;24.10;99.90;;;;;;4594289;19;19911;-23
2023/07/02 06:23:44;;;;;;;;;;;24.10;99.90;;;;;;4592434;19;20233;-24
2023/07/02 06:25:15;;;;;;;;;;;24.10;99.90;;;;;;4592189;19;19996;-25
2023/07/02 06:26:47;;;;;;;;;;;24.00;99.90;;;;;;4593474;19;19942;-23
2023/07/02 06:28:18;;;;;;;;;;;24.00;99.90;;;;;;4590860;19;19918;-30
2023/07/02 06:29:50;;;;;;;;;;;24.00;99.90;;;;;;4591858;19;19947;-24
2023/07/02 06:31:21;;;;;;;;;;;23.90;99.90;;;;;;4591169;19;19927;-27
2023/07/02 06:32:53;;;;;;;;;;;23.90;99.90;;;;;;4592627;19;19922;-28
2023/07/02 06:34:24;;;;;;;;;;;23.90;99.90;;;;;;4594148;19;19918;-28
2023/07/02 06:35:55;;;;;;;;;;;23.90;99.90;;;;;;4592757;19;19915;-28
2023/07/02 06:37:26;;;;;;;;;;;23.80;99.90;;;;;;4592133;19;19922;-24
2023/07/02 06:38:58;;;;;;;;;;;23.90;99.90;;;;;;4593442;19;19918;-24
2023/07/02 06:40:29;;;;;;;;;;;23.80;99.90;;;;;;4593337;19;19930;-27
2023/07/02 06:42:00;;;;;;;;;;;23.80;99.90;;;;;;4593378;19;19918;-25
2023/07/02 06:43:34;;;;;;;;;;;23.80;99.90;;;;;;4593703;19;19919;-29
2023/07/02 06:45:05;;;;;;;;;;;23.80;99.90;;;;;;4593348;19;19911;-24
2023/07/02 06:46:36;;;;;;;;;;;23.80;99.90;;;;;;4591953;19;19918;-24
2023/07/02 06:48:09;;;;;;;;;;;23.80;99.90;;;;;;4592056;19;19931;-29
2023/07/02 06:49:41;;;;;;;;;;;23.80;99.90;;;;;;4592983;19;20257;-24
2023/07/02 06:51:14;;;;;;;;;;;23.80;99.90;;;;;;4592851;19;19911;-24
2023/07/02 06:52:45;;;;;;;;;;;23.80;99.90;;;;;;4592609;19;19918;-28
2023/07/02 06:54:16;;;;;;;;;;;23.80;99.90;;;;;;4593323;19;19922;-24
2023/07/02 06:55:47;;;;;;;;;;;23.80;99.90;;;;;;4593628;19;19926;-24
2023/07/02 06:57:20;;;;;;;;;;;23.80;99.90;;;;;;4592378;19;19921;-26
2023/07/02 06:58:51;;;;;;;;;;;23.80;99.90;;;;;;4592098;19;19915;-28
2023/07/02 07:00:22;;;;;;;;;;;23.80;99.90;;;;;;4590790;19;19952;-28
2023/07/02 07:01:53;;;;;;;;;;;23.80;99.90;;;;;;4592568;19;19942;-28
2023/07/02 07:03:24;;;;;;;;;;;23.80;99.90;;;;;;4593507;19;20256;-23
2023/07/02 07:04:55;;;;;;;;;;;23.80;99.90;;;;;;4592970;19;19918;-24
2023/07/02 07:06:27;;;;;;;;;;;23.80;99.90;;;;;;4593096;19;19932;-24
2023/07/02 07:08:01;;;;;;;;;;;23.80;99.90;;;;;;4591889;19;19914;-25
2023/07/02 07:09:33;;;;;;;;;;;23.80;99.90;;;;;;4591937;19;19929;-24
2023/07/02 07:11:04;;;;;;;;;;;23.80;99.90;;;;;;4594319;19;19924;-24
2023/07/02 07:12:34;;;;;;;;;;;23.90;99.90;;;;;;4594809;19;19922;-24
2023/07/02 07:14:06;;;;;;;;;;;23.90;99.90;;;;;;4592846;19;19918;-24
2023/07/02 07:15:37;;;;;;;;;;;23.90;99.90;;;;;;4592547;19;19938;-24
2023/07/02 07:17:08;;;;;;;;;;;24.00;99.90;;;;;;4591641;19;19914;-24
2023/07/02 07:18:40;;;;;;;;;;;24.00;99.90;;;;;;4592145;19;19923;-27
2023/07/02 07:20:11;;;;;;;;;;;24.10;99.90;;;;;;4590729;19;19921;-24
2023/07/02 07:21:43;;;;;;;;;;;24.10;99.90;;;;;;4593381;19;19919;-28
2023/07/02 07:23:15;;;;;;;;;;;24.10;99.90;;;;;;4591360;19;19923;-24
2023/07/02 07:24:46;;;;;;;;;;;24.10;99.90;;;;;;4591653;19;19970;-24
2023/07/02 07:26:17;;;;;;;;;;;24.10;99.90;;;;;;4591678;19;19907;-26
2023/07/02 07:27:49;;;;;;;;;;;24.10;99.90;;;;;;4591317;19;20248;-28
2023/07/02 07:29:21;;;;;;;;;;;24.10;99.90;;;;;;4591307;19;20340;-24
2023/07/02 07:30:52;;;;;;;;;;;24.10;99.90;;;;;;4592136;19;19915;-24
2023/07/02 07:32:23;;;;;;;;;;;24.10;99.90;;;;;;4591093;19;19923;-24
2023/07/02 07:33:54;;;;;;;;;;;24.10;99.90;;;;;;4591171;19;20249;-24
2023/07/02 07:35:25;;;;;;;;;;;24.10;99.90;;;;;;4591197;19;20325;-26
2023/07/02 07:36:57;;;;;;;;;;;24.10;99.90;;;;;;4592651;19;19914;-24
2023/07/02 07:38:29;;;;;;;;;;;24.10;99.90;;;;;;4591196;19;19922;-24
2023/07/02 07:40:00;;;;;;;;;;;24.10;99.90;;;;;;4590953;19;19915;-24
2023/07/02 07:41:32;;;;;;;;;;;24.10;99.90;;;;;;4592618;19;20291;-24
2023/07/02 07:43:03;;;;;;;;;;;24.00;99.90;;;;;;4590560;19;20257;-24
2023/07/02 07:44:34;;;;;;;;;;;24.00;99.90;;;;;;4590851;19;19943;-24
2023/07/02 07:46:05;;;;;;;;;;;24.00;99.90;;;;;;4590537;19;19914;-23
2023/07/02 07:47:36;;;;;;;;;;;24.00;99.90;;;;;;4591579;19;19919;-26
2023/07/02 07:49:07;;;;;;;;;;;24.00;99.90;;;;;;4592251;19;20261;-25
2023/07/02 07:50:39;;;;;;;;;;;24.10;99.90;;;;;;4590966;19;20364;-27
2023/07/02 07:52:09;;;;;;;;;;;24.10;99.90;;;;;;4591572;19;19918;-25
2023/07/02 07:53:42;;;;;;;;;;;24.10;99.90;;;;;;4592100;19;19911;-26
2023/07/02 07:55:14;;;;;;;;;;;24.30;99.90;;;;;;4591282;19;19978;-26
2023/07/02 07:56:45;;;;;;;;;;;24.40;99.90;;;;;;4591995;19;20246;-24
2023/07/02 07:58:18;;;;;;;;;;;24.40;99.90;;;;;;4590634;19;19974;-31
2023/07/02 07:59:49;;;;;;;;;;;24.60;99.90;;;;;;4591058;19;19915;-24
2023/07/02 08:01:20;;;;;;;;;;;24.60;99.90;;;;;;4590201;19;20257;-25
2023/07/02 08:02:52;;;;;;;;;;;24.70;99.90;;;;;;4590524;19;19910;-25
2023/07/02 08:04:24;;;;;;;;;;;24.80;99.90;;;;;;4591083;19;19929;-28
2023/07/02 08:05:54;;;;;;;;;;;24.80;99.90;;;;;;4590904;19;20317;-24
2023/07/02 08:07:25;;;;;;;;;;;24.90;99.90;;;;;;4590403;19;19922;-25
2023/07/02 08:08:59;;;;;;;;;;;24.90;99.90;;;;;;4589031;19;19929;-25
2023/07/02 08:10:29;;;;;;;;;;;25.00;99.90;;;;;;4587901;19;19914;-24
2023/07/02 08:12:00;;;;;;;;;;;25.00;99.90;;;;;;4589662;19;20329;-25
2023/07/02 08:13:32;;;;;;;;;;;25.10;99.90;;;;;;4589565;19;19939;-24
2023/07/02 08:15:03;;;;;;;;;;;25.10;99.90;;;;;;4589256;19;19922;-26
2023/07/02 08:16:34;;;;;;;;;;;25.10;99.90;;;;;;4590022;19;19934;-26
2023/07/02 08:18:07;;;;;;;;;;;25.00;99.90;;;;;;4589264;19;19923;-25
2023/07/02 08:19:38;;;;;;;;;;;25.00;99.90;;;;;;4588789;19;19915;-24
2023/07/02 08:21:09;;;;;;;;;;;25.00;99.90;;;;;;4588781;19;20026;-24
2023/07/02 08:22:40;;;;;;;;;;;25.00;99.90;;;;;;4589698;19;20345;-24
2023/07/02 08:24:13;;;;;;;;;;;25.00;99.90;;;;;;4588886;19;19932;-27
2023/07/02 08:25:44;;;;;;;;;;;24.90;99.90;;;;;;4588612;19;19935;-24
2023/07/02 08:27:16;;;;;;;;;;;24.90;99.90;;;;;;4588659;19;19911;-24
2023/07/02 08:28:48;;;;;;;;;;;24.90;99.90;;;;;;4590889;19;20346;-31
2023/07/02 08:30:19;;;;;;;;;;;24.90;99.90;;;;;;4590721;19;19936;-27
2023/07/02 08:31:50;;;;;;;;;;;24.80;99.90;;;;;;4590788;19;20333;-24
2023/07/02 08:33:21;;;;;;;;;;;24.70;99.90;;;;;;4588164;19;19999;-25
2023/07/02 08:34:52;;;;;;;;;;;24.70;99.90;;;;;;4588795;19;19991;-27
2023/07/02 08:36:24;;;;;;;;;;;24.60;99.90;;;;;;4589080;19;20009;-25
2023/07/02 08:51:10;;;;;;;;;;;24.30;99.90;;;;;;4588308;19;20351;-28
2023/07/02 08:52:42;;;;;;;;;;;24.30;99.90;;;;;;4588562;19;19950;-28
2023/07/02 08:54:14;;;;;;;;;;;24.30;99.90;;;;;;4589607;19;19918;-24
2023/07/02 08:55:45;;;;;;;;;;;24.20;99.90;;;;;;4591243;19;19910;-25
2023/07/02 08:57:16;;;;;;;;;;;24.30;99.90;;;;;;4591525;19;19926;-28
2023/07/02 08:58:47;;;;;;;;;;;24.20;99.90;;;;;;4590302;19;19922;-23
2023/07/02 09:00:21;;;;;;;;;;;24.20;99.90;;;;;;4589636;19;19928;-26
2023/07/02 09:01:52;;;;;;;;;;;24.10;99.90;;;;;;4589141;19;20311;-25
2023/07/02 09:03:23;;;;;;;;;;;24.10;99.90;;;;;;4589617;19;20351;-24
2023/07/02 09:04:58;;;;;;;;;;;24.10;99.90;;;;;;4589390;19;19915;-27